Time;durP1;ratioP1;P1;durP2;ratioP2;P2;SDS_P1;SDS_P2;PMS_P1;PMS_P2;Temp;Humidity;BMP_temperature;BMP_pressure;BME280_temperature;BME280_humidity;BME280_pressure;Samples;Min_cycle;Max_cycle;Signal;HPM_P1;HPM_P2
2021/01/05 00:00:53;;;;;;;29.25;14.68;;;;;;;;;;5085255;28;20024;-50
2021/01/05 00:03:20;;;;;;;26.58;13.95;;;;;;;;;;5083790;28;20024;-47
2021/01/05 00:05:46;;;;;;;29.52;14.07;;;;;;;;;;5084046;28;20028;-47
2021/01/05 00:08:12;;;;;;;27.52;13.48;;;;;;;;;;5084560;28;20039;-49
2021/01/05 00:10:38;;;;;;;28.52;14.45;;;;;;;;;;5083687;28;20032;-47
2021/01/05 00:13:04;;;;;;;27.27;14.13;;;;;;;;;;5084601;28;20414;-47
2021/01/05 00:15:30;;;;;;;32.00;15.05;;;;;;;;;;5083620;28;20517;-48
2021/01/05 00:17:56;;;;;;;28.90;14.05;;;;;;;;;;5083460;28;20147;-47
2021/01/05 00:20:24;;;;;;;31.83;14.85;;;;;;;;;;5084858;28;20021;-46
2021/01/05 00:22:50;;;;;;;31.45;15.50;;;;;;;;;;5084019;28;20121;-48
2021/01/05 00:25:17;;;;;;;29.35;14.35;;;;;;;;;;5084216;28;20277;-46
2021/01/05 00:27:43;;;;;;;36.65;16.15;;;;;;;;;;5084107;28;20237;-47
2021/01/05 00:30:14;;;;;;;29.48;14.43;;;;;;;;;;5084294;28;20046;-48
2021/01/05 00:32:42;;;;;;;30.95;14.38;;;;;;;;;;5083739;28;20509;-45
2021/01/05 00:35:09;;;;;;;33.00;15.75;;;;;;;;;;5084094;28;20031;-47
2021/01/05 00:37:35;;;;;;;33.60;15.73;;;;;;;;;;5084051;28;20028;-48
2021/01/05 00:40:01;;;;;;;28.95;13.80;;;;;;;;;;5084209;28;20095;-46
2021/01/05 00:42:27;;;;;;;33.13;16.30;;;;;;;;;;5083690;28;20055;-46
2021/01/05 00:44:53;;;;;;;33.83;15.05;;;;;;;;;;5084668;28;20024;-47
2021/01/05 00:47:19;;;;;;;31.00;14.40;;;;;;;;;;5084223;28;20049;-46
2021/01/05 00:49:45;;;;;;;29.02;14.05;;;;;;;;;;5083648;28;20487;-47
2021/01/05 00:52:11;;;;;;;25.95;12.75;;;;;;;;;;5084164;28;20573;-47
2021/01/05 00:54:37;;;;;;;27.85;13.10;;;;;;;;;;5083463;28;20024;-46
2021/01/05 00:57:03;;;;;;;26.85;13.77;;;;;;;;;;5082880;28;20028;-47
2021/01/05 00:59:29;;;;;;;31.15;14.60;;;;;;;;;;5082233;28;20036;-47
2021/01/05 01:01:56;;;;;;;29.58;13.25;;;;;;;;;;5083307;28;20026;-47
2021/01/05 01:04:22;;;;;;;30.85;14.40;;;;;;;;;;5084310;28;20056;-47
2021/01/05 01:06:48;;;;;;;30.90;13.60;;;;;;;;;;5083503;28;20063;-47
2021/01/05 01:09:14;;;;;;;26.50;12.95;;;;;;;;;;5084217;28;20024;-46
2021/01/05 01:11:55;;;;;;;28.65;13.40;;;;;;;;;;5083466;28;20024;-50
2021/01/05 01:14:21;;;;;;;26.30;12.77;;;;;;;;;;5084528;28;20406;-50
2021/01/05 01:16:47;;;;;;;29.35;13.45;;;;;;;;;;5083728;28;20032;-50
2021/01/05 01:19:13;;;;;;;26.42;13.55;;;;;;;;;;5083591;28;20107;-48
2021/01/05 01:21:44;;;;;;;27.95;13.45;;;;;;;;;;5083668;28;20224;-47
2021/01/05 01:24:10;;;;;;;28.13;13.13;;;;;;;;;;5087835;28;20464;-47
2021/01/05 01:26:36;;;;;;;26.75;12.75;;;;;;;;;;5087249;28;20043;-47
2021/01/05 01:29:02;;;;;;;29.90;13.50;;;;;;;;;;5087345;28;20024;-48
2021/01/05 01:31:29;;;;;;;32.35;15.25;;;;;;;;;;5087380;28;20039;-47
2021/01/05 01:33:54;;;;;;;29.65;13.95;;;;;;;;;;5087817;28;20020;-46
2021/01/05 01:36:21;;;;;;;29.95;14.02;;;;;;;;;;5088025;28;20024;-46
2021/01/05 01:38:46;;;;;;;29.13;14.52;;;;;;;;;;5085703;28;20073;-46
2021/01/05 01:41:12;;;;;;;29.58;14.15;;;;;;;;;;5087958;28;20370;-47
2021/01/05 01:43:38;;;;;;;30.10;14.27;;;;;;;;;;5085332;28;20038;-47
2021/01/05 01:46:04;;;;;;;31.85;15.07;;;;;;;;;;5087141;28;20024;-45
2021/01/05 01:48:30;;;;;;;34.45;17.10;;;;;;;;;;5086830;28;20023;-47
2021/01/05 01:50:59;;;;;;;31.10;15.00;;;;;;;;;;5087433;28;20028;-46
2021/01/05 01:53:33;;;;;;;32.08;15.55;;;;;;;;;;5087311;28;20035;-49
2021/01/05 01:56:02;;;;;;;28.85;14.55;;;;;;;;;;5086134;28;20031;-46
2021/01/05 01:58:31;;;;;;;28.48;13.77;;;;;;;;;;5086797;28;20031;-48
2021/01/05 02:01:17;;;;;;;26.52;13.55;;;;;;;;;;5087193;28;20035;-47
2021/01/05 02:03:56;;;;;;;29.75;14.20;;;;;;;;;;5085357;28;20053;-49
2021/01/05 02:06:40;;;;;;;27.83;12.82;;;;;;;;;;5086788;28;20024;-46
2021/01/05 02:09:27;;;;;;;30.40;13.95;;;;;;;;;;5086753;28;20025;-50
2021/01/05 02:12:16;;;;;;;26.17;13.25;;;;;;;;;;5085320;28;20258;-45
2021/01/05 02:15:02;;;;;;;27.08;12.88;;;;;;;;;;5085523;28;20031;-49
2021/01/05 02:17:28;;;;;;;26.02;12.55;;;;;;;;;;5086511;28;20075;-46
2021/01/05 02:19:59;;;;;;;28.75;13.63;;;;;;;;;;5087304;28;20445;-49
2021/01/05 02:22:44;;;;;;;28.58;13.45;;;;;;;;;;5087014;28;20028;-47
2021/01/05 02:25:10;;;;;;;;;;;;;;;;;;5087051;28;20031;-47
2021/01/05 02:27:40;;;;;;;25.67;12.18;;;;;;;;;;5086225;28;19904;-48
2021/01/05 02:30:09;;;;;;;26.80;12.35;;;;;;;;;;5086516;28;20055;-48
2021/01/05 02:32:46;;;;;;;22.45;10.15;;;;;;;;;;5085485;28;20498;-47
2021/01/05 02:35:24;;;;;;;22.48;10.98;;;;;;;;;;5086266;28;20028;-48
2021/01/05 02:37:56;;;;;;;24.75;11.82;;;;;;;;;;5085919;28;20020;-49
2021/01/05 02:40:32;;;;;;;25.30;11.98;;;;;;;;;;5086184;28;20020;-46
2021/01/05 02:42:58;;;;;;;25.23;12.13;;;;;;;;;;5085665;28;20036;-46
2021/01/05 02:45:36;;;;;;;27.75;13.05;;;;;;;;;;5086614;28;20029;-48
2021/01/05 02:48:22;;;;;;;26.25;12.93;;;;;;;;;;5085801;28;20024;-49
2021/01/05 02:51:00;;;;;;;26.65;11.75;;;;;;;;;;5085693;28;20137;-47
2021/01/05 02:53:26;;;;;;;30.73;14.00;;;;;;;;;;5086371;28;20024;-47
2021/01/05 02:56:11;;;;;;;28.42;13.07;;;;;;;;;;5084307;28;20358;-50
2021/01/05 02:58:56;;;;;;;27.38;13.65;;;;;;;;;;5085333;28;20031;-46
2021/01/05 03:01:46;;;;;;;29.20;13.70;;;;;;;;;;5085559;28;20107;-47
2021/01/05 03:04:12;;;;;;;33.50;15.48;;;;;;;;;;5085023;28;20016;-50
2021/01/05 03:06:57;;;;;;;28.45;14.77;;;;;;;;;;5085248;28;20028;-47
2021/01/05 03:09:23;;;;;;;28.80;13.82;;;;;;;;;;5086322;28;20054;-45
2021/01/05 03:11:58;;;;;;;29.95;14.05;;;;;;;;;;5085149;28;20051;-48
2021/01/05 03:14:35;;;;;;;31.40;14.20;;;;;;;;;;5086309;28;20040;-46
2021/01/05 03:17:20;;;;;;;30.63;14.35;;;;;;;;;;5085552;28;20494;-46
2021/01/05 03:20:04;;;;;;;30.40;13.85;;;;;;;;;;5084991;28;20051;-46
2021/01/05 03:22:32;;;;;;;31.20;15.50;;;;;;;;;;5085268;28;20424;-48
2021/01/05 03:24:59;;;;;;;30.92;15.07;;;;;;;;;;5085327;28;20032;-46
2021/01/05 03:27:27;;;;;;;29.73;14.43;;;;;;;;;;5085833;28;20031;-47
2021/01/05 03:29:57;;;;;;;31.15;14.82;;;;;;;;;;5085282;28;20034;-46
2021/01/05 03:32:24;;;;;;;32.47;14.85;;;;;;;;;;5085505;28;20103;-50
2021/01/05 03:34:50;;;;;;;32.80;14.52;;;;;;;;;;5084904;28;20034;-47
2021/01/05 03:37:16;;;;;;;28.75;13.35;;;;;;;;;;5085066;28;20405;-48
2021/01/05 03:39:42;;;;;;;28.83;14.50;;;;;;;;;;5084709;28;20033;-46
2021/01/05 03:42:08;;;;;;;32.13;15.20;;;;;;;;;;5084923;28;20039;-49
2021/01/05 03:44:34;;;;;;;32.13;15.88;;;;;;;;;;5084575;28;20020;-48
2021/01/05 03:47:01;;;;;;;30.88;14.95;;;;;;;;;;5084888;28;20077;-49
2021/01/05 03:49:27;;;;;;;27.55;13.07;;;;;;;;;;5085609;28;20074;-49
2021/01/05 03:51:54;;;;;;;28.77;13.45;;;;;;;;;;5085135;28;20523;-47
2021/01/05 03:54:22;;;;;;;29.40;15.00;;;;;;;;;;5084533;28;20028;-47
2021/01/05 03:56:48;;;;;;;33.55;14.90;;;;;;;;;;5084737;28;21026;-48
2021/01/05 03:59:14;;;;;;;30.08;14.07;;;;;;;;;;5084701;28;20028;-46
2021/01/05 04:01:48;;;;;;;31.75;15.45;;;;;;;;;;5084100;28;20020;-49
2021/01/05 04:04:14;;;;;;;29.17;13.75;;;;;;;;;;5082660;28;20579;-49
2021/01/05 04:06:41;;;;;;;30.67;15.07;;;;;;;;;;5084262;28;20038;-47
2021/01/05 04:09:07;;;;;;;31.95;14.90;;;;;;;;;;5084469;28;20020;-46
2021/01/05 04:11:33;;;;;;;32.83;15.30;;;;;;;;;;5084661;28;20028;-47
2021/01/05 04:13:59;;;;;;;34.28;15.52;;;;;;;;;;5084330;28;20290;-50
2021/01/05 04:16:25;;;;;;;31.02;14.80;;;;;;;;;;5084967;28;20039;-45
2021/01/05 04:18:51;;;;;;;30.00;14.93;;;;;;;;;;5084320;28;20118;-48
2021/01/05 04:21:18;;;;;;;27.70;14.00;;;;;;;;;;5082901;28;20020;-50
2021/01/05 04:23:44;;;;;;;30.50;13.95;;;;;;;;;;5084054;28;20040;-47
2021/01/05 04:26:10;;;;;;;27.45;14.23;;;;;;;;;;5084693;28;20017;-47
2021/01/05 04:28:36;;;;;;;30.58;14.30;;;;;;;;;;5084279;28;20028;-47
2021/01/05 04:31:04;;;;;;;28.83;14.43;;;;;;;;;;5084326;28;20075;-47
2021/01/05 04:33:30;;;;;;;30.20;14.80;;;;;;;;;;5084260;28;20039;-47
2021/01/05 04:35:56;;;;;;;30.75;15.27;;;;;;;;;;5084633;28;20028;-49
2021/01/05 04:38:22;;;;;;;32.05;14.52;;;;;;;;;;5084242;28;20032;-47
2021/01/05 04:40:48;;;;;;;29.40;14.70;;;;;;;;;;5084427;28;20516;-46
2021/01/05 04:43:32;;;;;;;30.23;14.30;;;;;;;;;;5084053;28;20040;-47
2021/01/05 04:46:19;;;;;;;33.28;15.45;;;;;;;;;;5083789;28;20055;-46
2021/01/05 04:48:45;;;;;;;31.90;14.77;;;;;;;;;;5083968;28;20032;-48
2021/01/05 04:51:20;;;;;;;26.48;13.30;;;;;;;;;;5084015;28;20021;-49
2021/01/05 04:54:22;;;;;;;25.50;12.45;;;;;;;;;;5083829;28;20028;-50
2021/01/05 04:57:07;;;;;;;28.75;13.15;;;;;;;;;;5083009;28;20027;-46
2021/01/05 04:59:56;;;;;;;29.90;14.30;;;;;;;;;;5087859;28;20123;-47
2021/01/05 05:02:29;;;;;;;31.92;14.10;;;;;;;;;;5086038;28;20032;-48
2021/01/05 05:05:10;;;;;;;30.38;14.23;;;;;;;;;;5088813;28;20020;-48
2021/01/05 05:07:36;;;;;;;29.85;13.95;;;;;;;;;;5087529;28;20016;-47
2021/01/05 05:10:07;;;;;;;30.70;14.35;;;;;;;;;;5088297;28;20035;-46
2021/01/05 05:12:55;;;;;;;31.83;14.30;;;;;;;;;;5087996;28;20504;-46
2021/01/05 05:15:39;;;;;;;31.65;15.18;;;;;;;;;;5087607;28;20028;-47
2021/01/05 05:18:05;;;;;;;;;;;;;;;;;;5087995;28;20620;-47
2021/01/05 05:20:58;;;;;;;31.98;14.02;;;;;;;;;;5089297;28;19908;-49
2021/01/05 05:23:37;;;;;;;30.00;14.73;;;;;;;;;;5089223;28;20040;-45
2021/01/05 05:26:20;;;;;;;31.90;13.88;;;;;;;;;;5087763;28;20114;-46
2021/01/05 05:28:53;;;;;;;31.77;14.07;;;;;;;;;;5079287;28;20031;-48
2021/01/05 05:31:23;;;;;;;29.85;13.93;;;;;;;;;;5089000;28;20529;-47
2021/01/05 05:33:50;;;;;;;29.58;14.35;;;;;;;;;;5088642;28;20425;-46
2021/01/05 05:36:36;;;;;;;26.00;13.35;;;;;;;;;;5089109;28;20867;-48
2021/01/05 05:39:26;;;;;;;27.25;13.55;;;;;;;;;;5101378;28;20389;-45
2021/01/05 05:42:10;;;;;;;28.05;13.38;;;;;;;;;;5103895;28;20040;-48
2021/01/05 05:44:39;;;;;;;27.48;13.35;;;;;;;;;;5088249;28;20434;-47
2021/01/05 05:47:26;;;;;;;27.40;12.32;;;;;;;;;;5089274;28;20031;-47
2021/01/05 05:49:55;;;;;;;30.30;13.77;;;;;;;;;;5089344;28;20028;-46
2021/01/05 05:52:35;;;;;;;26.55;12.52;;;;;;;;;;5089120;28;20020;-47
2021/01/05 05:55:02;;;;;;;23.65;12.52;;;;;;;;;;5087971;28;20490;-45
2021/01/05 05:57:31;;;;;;;24.30;11.98;;;;;;;;;;5088670;28;20032;-45
2021/01/05 06:00:02;;;;;;;24.83;12.45;;;;;;;;;;5088392;28;20024;-46
2021/01/05 06:02:28;;;;;;;30.95;13.38;;;;;;;;;;5087091;28;20379;-48
2021/01/05 06:04:57;;;;;;;25.85;12.77;;;;;;;;;;5085589;28;20032;-47
2021/01/05 06:07:23;;;;;;;29.48;14.85;;;;;;;;;;5086436;28;20024;-49
2021/01/05 06:09:49;;;;;;;28.90;14.45;;;;;;;;;;5086425;28;20039;-48
2021/01/05 06:12:15;;;;;;;28.38;13.80;;;;;;;;;;5088445;28;20035;-49
2021/01/05 06:14:41;;;;;;;39.92;17.20;;;;;;;;;;5087003;28;20039;-48
2021/01/05 06:17:07;;;;;;;37.85;17.33;;;;;;;;;;5085876;28;20034;-47
2021/01/05 06:19:33;;;;;;;34.35;15.88;;;;;;;;;;5086553;28;20544;-49
2021/01/05 06:21:59;;;;;;;33.30;16.15;;;;;;;;;;5086552;28;20016;-47
2021/01/05 06:24:25;;;;;;;31.65;15.20;;;;;;;;;;5087015;28;20099;-47
2021/01/05 06:26:51;;;;;;;31.63;15.15;;;;;;;;;;5086612;28;20020;-46
2021/01/05 06:29:17;;;;;;;45.67;21.75;;;;;;;;;;5086079;28;20042;-46
2021/01/05 06:31:44;;;;;;;43.80;20.67;;;;;;;;;;5086190;28;20028;-48
2021/01/05 06:34:10;;;;;;;40.60;18.33;;;;;;;;;;5086083;28;20024;-47
2021/01/05 06:36:36;;;;;;;35.30;17.63;;;;;;;;;;5085877;28;20024;-45
2021/01/05 06:39:04;;;;;;;47.47;21.95;;;;;;;;;;5086166;28;20585;-47
2021/01/05 06:41:30;;;;;;;46.25;22.52;;;;;;;;;;5085995;28;20258;-48
2021/01/05 06:43:56;;;;;;;44.03;22.08;;;;;;;;;;5085860;28;20110;-45
2021/01/05 06:46:23;;;;;;;45.78;22.00;;;;;;;;;;5086462;28;20020;-49
2021/01/05 06:48:49;;;;;;;50.25;25.45;;;;;;;;;;5085672;28;20032;-49
2021/01/05 06:51:15;;;;;;;51.88;24.10;;;;;;;;;;5085920;28;20028;-50
2021/01/05 06:53:41;;;;;;;44.53;21.33;;;;;;;;;;5085391;28;20028;-49
2021/01/05 06:56:07;;;;;;;40.97;20.23;;;;;;;;;;5085108;28;20023;-47
2021/01/05 06:58:34;;;;;;;36.72;19.13;;;;;;;;;;5085615;28;20039;-47
2021/01/05 07:01:00;;;;;;;33.63;16.25;;;;;;;;;;5085344;28;20096;-50
2021/01/05 07:03:26;;;;;;;31.58;15.73;;;;;;;;;;5085515;28;20063;-46
2021/01/05 07:05:52;;;;;;;34.72;15.93;;;;;;;;;;5085935;28;20024;-48
2021/01/05 07:08:21;;;;;;;30.33;14.43;;;;;;;;;;5085449;28;20028;-46
2021/01/05 07:10:48;;;;;;;32.90;16.45;;;;;;;;;;5085448;28;20417;-45
2021/01/05 07:13:14;;;;;;;30.13;14.88;;;;;;;;;;5085568;28;20028;-46
2021/01/05 07:15:40;;;;;;;31.88;14.95;;;;;;;;;;5085165;28;20032;-47
2021/01/05 07:18:09;;;;;;;33.88;16.10;;;;;;;;;;5085206;28;20374;-46
2021/01/05 07:20:35;;;;;;;34.88;16.15;;;;;;;;;;5085086;28;20043;-47
2021/01/05 07:23:02;;;;;;;33.80;16.48;;;;;;;;;;5084063;28;20027;-46
2021/01/05 07:25:28;;;;;;;27.23;14.50;;;;;;;;;;5085385;28;20024;-48
2021/01/05 07:27:54;;;;;;;32.72;15.75;;;;;;;;;;5085755;28;20039;-49
2021/01/05 07:30:20;;;;;;;36.92;17.02;;;;;;;;;;5085107;28;20024;-46
2021/01/05 07:32:46;;;;;;;37.22;16.55;;;;;;;;;;5084419;28;20043;-47
2021/01/05 07:35:12;;;;;;;31.70;15.32;;;;;;;;;;5084162;28;20028;-46
2021/01/05 07:37:41;;;;;;;36.20;16.85;;;;;;;;;;5106201;28;20032;-49
2021/01/05 07:40:08;;;;;;;32.15;15.65;;;;;;;;;;5105092;28;20096;-47
2021/01/05 07:42:34;;;;;;;34.22;16.65;;;;;;;;;;5084687;28;20517;-48
2021/01/05 07:45:01;;;;;;;33.95;15.90;;;;;;;;;;5084690;28;20016;-49
2021/01/05 07:47:29;;;;;;;32.13;15.30;;;;;;;;;;5084549;28;20097;-48
2021/01/05 07:49:55;;;;;;;31.80;16.08;;;;;;;;;;5084480;28;20267;-49
2021/01/05 07:52:23;;;;;;;31.95;14.70;;;;;;;;;;5083638;28;20027;-47
2021/01/05 07:54:50;;;;;;;27.73;14.48;;;;;;;;;;5084659;28;20042;-48
2021/01/05 07:57:17;;;;;;;31.92;14.10;;;;;;;;;;5084692;28;20446;-46
2021/01/05 07:59:44;;;;;;;30.25;15.02;;;;;;;;;;5084148;28;20485;-45
2021/01/05 08:02:10;;;;;;;36.67;17.92;;;;;;;;;;5083931;28;20086;-47
2021/01/05 08:04:36;;;;;;;30.40;14.75;;;;;;;;;;5085389;28;20024;-46
2021/01/05 08:07:03;;;;;;;29.95;14.18;;;;;;;;;;5084558;28;20059;-46
2021/01/05 08:09:29;;;;;;;29.95;14.48;;;;;;;;;;5084627;28;20519;-49
2021/01/05 08:11:55;;;;;;;24.85;11.90;;;;;;;;;;5083316;28;20024;-47
2021/01/05 08:14:21;;;;;;;30.23;13.75;;;;;;;;;;5083759;28;20111;-47
2021/01/05 08:16:50;;;;;;;27.27;13.93;;;;;;;;;;5084168;28;20032;-47
2021/01/05 08:19:18;;;;;;;25.67;12.60;;;;;;;;;;5084373;28;20077;-46
2021/01/05 08:21:44;;;;;;;30.30;15.35;;;;;;;;;;5084117;28;20507;-48
2021/01/05 08:24:10;;;;;;;29.77;14.52;;;;;;;;;;5084504;28;20024;-45
2021/01/05 08:26:36;;;;;;;31.00;15.35;;;;;;;;;;5084797;28;20525;-46
2021/01/05 08:29:02;;;;;;;27.98;14.02;;;;;;;;;;5084347;28;20544;-46
2021/01/05 08:31:36;;;;;;;29.55;14.50;;;;;;;;;;5083543;28;20032;-45
2021/01/05 08:34:02;;;;;;;;;;;;;;;;;;5084658;28;20103;-46
2021/01/05 08:36:29;;;;;;;31.45;16.02;;;;;;;;;;5084188;28;20011;-47
2021/01/05 08:38:56;;;;;;;31.92;15.38;;;;;;;;;;5084344;28;20305;-48
2021/01/05 08:41:22;;;;;;;33.85;16.10;;;;;;;;;;5084767;28;20024;-46
2021/01/05 08:43:48;;;;;;;32.83;16.10;;;;;;;;;;5083348;28;20510;-49
2021/01/05 08:46:24;;;;;;;33.55;16.63;;;;;;;;;;5084478;28;20062;-47
2021/01/05 08:48:51;;;;;;;41.17;17.38;;;;;;;;;;5083777;28;20024;-48
2021/01/05 08:51:17;;;;;;;55.97;22.42;;;;;;;;;;5083711;28;20082;-48
2021/01/05 08:53:45;;;;;;;52.53;20.75;;;;;;;;;;5083225;28;20043;-48
2021/01/05 08:56:30;;;;;;;44.53;19.27;;;;;;;;;;5084123;28;20081;-49
2021/01/05 08:58:56;;;;;;;42.63;18.40;;;;;;;;;;5083608;28;20042;-48
2021/01/05 09:01:23;;;;;;;40.30;17.65;;;;;;;;;;5084110;28;20024;-46
2021/01/05 09:03:49;;;;;;;41.38;18.35;;;;;;;;;;5083404;28;20039;-46
2021/01/05 09:06:19;;;;;;;41.20;17.83;;;;;;;;;;5083734;28;20042;-49
2021/01/05 09:08:46;;;;;;;37.15;16.35;;;;;;;;;;5083762;28;20025;-46
2021/01/05 09:11:23;;;;;;;38.55;17.80;;;;;;;;;;5084147;28;20028;-47
2021/01/05 09:13:50;;;;;;;38.63;18.05;;;;;;;;;;5083452;28;20028;-49
2021/01/05 09:16:23;;;;;;;38.42;17.38;;;;;;;;;;5084023;28;20470;-50
2021/01/05 09:18:51;;;;;;;37.38;18.08;;;;;;;;;;5083652;28;20061;-46
2021/01/05 09:21:22;;;;;;;36.22;15.80;;;;;;;;;;5083841;28;20028;-48
2021/01/05 09:23:48;;;;;;;47.00;19.10;;;;;;;;;;5083314;28;20044;-46
2021/01/05 09:26:18;;;;;;;51.35;20.00;;;;;;;;;;5083814;28;20086;-47
2021/01/05 09:28:44;;;;;;;42.40;18.17;;;;;;;;;;5083210;28;20460;-49
2021/01/05 09:31:10;;;;;;;40.00;16.77;;;;;;;;;;5083634;28;20028;-47
2021/01/05 09:33:36;;;;;;;107.35;31.45;;;;;;;;;;5082342;28;20020;-48
2021/01/05 09:36:02;;;;;;;108.43;32.30;;;;;;;;;;5066401;28;20075;-47
2021/01/05 09:38:28;;;;;;;81.35;26.85;;;;;;;;;;5068990;28;20461;-47
2021/01/05 09:40:54;;;;;;;59.80;21.92;;;;;;;;;;5083060;28;20082;-49
2021/01/05 09:43:20;;;;;;;59.60;22.17;;;;;;;;;;5084888;28;20174;-50
2021/01/05 09:45:47;;;;;;;48.53;21.63;;;;;;;;;;5087246;28;20043;-48
2021/01/05 09:48:14;;;;;;;48.90;19.77;;;;;;;;;;5087016;28;20023;-46
2021/01/05 09:50:42;;;;;;;39.15;17.83;;;;;;;;;;5086080;28;20039;-45
2021/01/05 09:53:08;;;;;;;43.92;18.80;;;;;;;;;;5086960;28;20054;-46
2021/01/05 09:55:34;;;;;;;38.30;17.38;;;;;;;;;;5087049;28;20039;-47
2021/01/05 09:58:01;;;;;;;37.55;17.15;;;;;;;;;;5086094;28;20028;-45
2021/01/05 10:00:27;;;;;;;35.95;16.73;;;;;;;;;;5086790;28;20024;-50
2021/01/05 10:02:53;;;;;;;36.92;16.13;;;;;;;;;;5086142;28;20494;-47
2021/01/05 10:05:19;;;;;;;32.50;16.05;;;;;;;;;;5087357;28;20043;-47
2021/01/05 10:07:45;;;;;;;35.30;16.45;;;;;;;;;;5086241;28;20048;-45
2021/01/05 10:10:19;;;;;;;30.35;14.77;;;;;;;;;;5085548;28;20078;-47
2021/01/05 10:12:45;;;;;;;32.23;15.37;;;;;;;;;;5086170;28;20073;-46
2021/01/05 10:15:12;;;;;;;32.08;15.70;;;;;;;;;;5086704;28;20095;-48
2021/01/05 10:17:38;;;;;;;27.67;13.23;;;;;;;;;;5086018;28;20054;-46
2021/01/05 10:20:08;;;;;;;28.40;13.43;;;;;;;;;;5086489;28;20031;-47
2021/01/05 10:22:34;;;;;;;23.40;12.13;;;;;;;;;;5086320;28;20090;-50
2021/01/05 10:25:00;;;;;;;22.60;11.18;;;;;;;;;;5086202;28;20016;-48
2021/01/05 10:27:27;;;;;;;22.67;11.27;;;;;;;;;;5086378;28;20532;-46
2021/01/05 10:29:55;;;;;;;20.92;10.07;;;;;;;;;;5086102;28;20074;-46
2021/01/05 10:32:21;;;;;;;23.17;11.75;;;;;;;;;;5086760;28;20024;-47
2021/01/05 10:34:47;;;;;;;27.88;13.48;;;;;;;;;;5086160;28;20563;-47
2021/01/05 10:37:14;;;;;;;27.38;12.70;;;;;;;;;;5086841;28;20463;-46
2021/01/05 10:39:40;;;;;;;25.60;13.38;;;;;;;;;;5085837;28;20102;-45
2021/01/05 10:42:06;;;;;;;27.98;13.85;;;;;;;;;;5085649;28;20111;-49
2021/01/05 10:44:32;;;;;;;28.65;14.18;;;;;;;;;;5086106;28;20020;-47
2021/01/05 10:47:03;;;;;;;27.40;14.05;;;;;;;;;;5085822;28;20410;-46
2021/01/05 10:49:29;;;;;;;24.63;13.23;;;;;;;;;;5085195;28;20028;-45
2021/01/05 10:51:57;;;;;;;26.95;13.30;;;;;;;;;;5085146;28;20020;-46
2021/01/05 10:54:26;;;;;;;31.40;14.18;;;;;;;;;;5084792;28;20032;-50
2021/01/05 10:56:58;;;;;;;27.85;13.00;;;;;;;;;;5086146;28;20066;-47
2021/01/05 10:59:27;;;;;;;32.70;15.02;;;;;;;;;;5086017;28;20064;-45
2021/01/05 11:01:55;;;;;;;32.30;15.00;;;;;;;;;;5086317;28;20020;-47
2021/01/05 11:04:23;;;;;;;29.67;14.55;;;;;;;;;;5086209;28;20019;-46
2021/01/05 11:06:56;;;;;;;27.60;13.32;;;;;;;;;;5085696;28;20032;-49
2021/01/05 11:09:23;;;;;;;25.45;12.32;;;;;;;;;;5086250;28;20383;-48
2021/01/05 11:11:55;;;;;;;29.02;14.15;;;;;;;;;;5085589;28;20031;-46
2021/01/05 11:14:21;;;;;;;31.48;14.85;;;;;;;;;;5086171;28;20104;-46
2021/01/05 11:16:48;;;;;;;31.13;14.32;;;;;;;;;;5085024;28;20031;-50
2021/01/05 11:19:14;;;;;;;34.08;15.05;;;;;;;;;;5085505;28;20049;-46
2021/01/05 11:21:40;;;;;;;29.98;14.07;;;;;;;;;;5085162;28;20044;-46
2021/01/05 11:24:07;;;;;;;30.75;13.52;;;;;;;;;;5085260;28;20102;-46
2021/01/05 11:26:36;;;;;;;27.00;13.68;;;;;;;;;;5085153;28;20031;-46
2021/01/05 11:29:04;;;;;;;26.65;12.05;;;;;;;;;;5085191;28;20032;-45
2021/01/05 11:31:31;;;;;;;28.40;13.13;;;;;;;;;;5085027;28;20059;-46
2021/01/05 11:33:57;;;;;;;58.58;19.48;;;;;;;;;;5084837;28;20058;-46
2021/01/05 11:36:24;;;;;;;54.38;19.63;;;;;;;;;;5085623;28;20024;-46
2021/01/05 11:38:51;;;;;;;54.78;19.95;;;;;;;;;;5085286;28;20031;-50
2021/01/05 11:41:21;;;;;;;51.85;19.05;;;;;;;;;;5084949;28;20509;-49
2021/01/05 11:43:48;;;;;;;41.30;16.85;;;;;;;;;;5084690;28;20290;-46
2021/01/05 11:46:15;;;;;;;40.80;17.00;;;;;;;;;;5085094;28;20334;-48
2021/01/05 11:48:42;;;;;;;135.07;79.43;;;;;;;;;;5084335;28;20117;-46
2021/01/05 11:51:08;;;;;;;79.63;47.65;;;;;;;;;;5085212;28;20024;-48
2021/01/05 11:53:34;;;;;;;61.03;36.92;;;;;;;;;;5084433;28;20032;-50
2021/01/05 11:56:00;;;;;;;47.00;27.08;;;;;;;;;;5084600;28;20020;-46
2021/01/05 11:58:27;;;;;;;38.35;21.35;;;;;;;;;;5084641;28;20508;-47
2021/01/05 12:00:53;;;;;;;31.63;18.65;;;;;;;;;;5084601;28;20043;-46
2021/01/05 12:03:19;;;;;;;31.60;16.50;;;;;;;;;;5084753;28;20027;-51
2021/01/05 12:05:46;;;;;;;30.25;14.82;;;;;;;;;;5083485;28;20031;-46
2021/01/05 12:08:12;;;;;;;29.35;15.60;;;;;;;;;;5084214;28;20030;-50
2021/01/05 12:10:38;;;;;;;28.85;15.02;;;;;;;;;;5083121;28;20402;-46
2021/01/05 12:13:04;;;;;;;24.23;12.73;;;;;;;;;;5084047;28;20035;-49
2021/01/05 12:15:30;;;;;;;24.02;13.10;;;;;;;;;;5084264;28;20425;-47
2021/01/05 12:17:56;;;;;;;25.08;12.68;;;;;;;;;;5083626;28;20498;-47
2021/01/05 12:20:22;;;;;;;24.35;13.20;;;;;;;;;;5084344;28;20031;-44
2021/01/05 12:22:48;;;;;;;24.67;12.80;;;;;;;;;;5084038;28;20021;-46
2021/01/05 12:25:14;;;;;;;25.25;11.98;;;;;;;;;;5083669;28;20073;-46
2021/01/05 12:27:40;;;;;;;25.13;12.55;;;;;;;;;;5083347;28;20075;-46
2021/01/05 12:30:06;;;;;;;25.65;13.30;;;;;;;;;;5083567;28;20020;-48
2021/01/05 12:32:32;;;;;;;24.92;13.13;;;;;;;;;;5083791;28;20027;-47
2021/01/05 12:35:00;;;;;;;26.27;13.13;;;;;;;;;;5083354;28;20028;-45
2021/01/05 12:37:26;;;;;;;40.40;19.30;;;;;;;;;;5083683;28;20560;-48
2021/01/05 12:39:52;;;;;;;39.40;18.65;;;;;;;;;;5084137;28;20029;-46
2021/01/05 12:42:19;;;;;;;36.80;17.85;;;;;;;;;;5083434;28;20078;-50
2021/01/05 12:44:47;;;;;;;31.90;15.38;;;;;;;;;;5083658;28;20024;-46
2021/01/05 12:47:14;;;;;;;31.55;15.98;;;;;;;;;;5083654;28;20056;-45
2021/01/05 12:49:40;;;;;;;28.23;14.18;;;;;;;;;;5083575;28;20093;-45
2021/01/05 12:52:09;;;;;;;24.20;12.75;;;;;;;;;;5083685;28;20036;-48
2021/01/05 12:54:35;;;;;;;27.77;14.43;;;;;;;;;;5083490;28;20024;-48
2021/01/05 12:57:01;;;;;;;30.77;14.93;;;;;;;;;;5083151;28;20051;-50
2021/01/05 12:59:27;;;;;;;25.10;13.25;;;;;;;;;;5083373;28;20032;-49
2021/01/05 13:01:58;;;;;;;25.55;11.52;;;;;;;;;;5082524;28;20020;-47
2021/01/05 13:04:25;;;;;;;23.48;12.80;;;;;;;;;;5083221;28;20102;-46
2021/01/05 13:06:51;;;;;;;24.23;13.07;;;;;;;;;;5083647;28;20028;-50
2021/01/05 13:09:17;;;;;;;22.40;12.43;;;;;;;;;;5083818;28;20036;-46
2021/01/05 13:11:44;;;;;;;26.30;13.35;;;;;;;;;;5082569;28;20063;-49
2021/01/05 13:14:11;;;;;;;28.98;13.75;;;;;;;;;;5083442;28;20016;-46
2021/01/05 13:16:38;;;;;;;25.50;12.95;;;;;;;;;;5083207;28;20493;-47
2021/01/05 13:19:05;;;;;;;23.85;12.32;;;;;;;;;;5086979;28;20517;-48
2021/01/05 13:21:35;;;;;;;25.65;13.88;;;;;;;;;;5086959;28;20012;-48
2021/01/05 13:24:03;;;;;;;25.52;13.10;;;;;;;;;;5087359;28;20038;-48
2021/01/05 13:26:29;;;;;;;29.73;15.63;;;;;;;;;;5087119;28;20031;-48
2021/01/05 13:28:55;;;;;;;28.55;14.65;;;;;;;;;;5087049;28;20036;-49
2021/01/05 13:31:21;;;;;;;31.58;16.25;;;;;;;;;;5087479;28;20499;-47
2021/01/05 13:33:47;;;;;;;28.25;15.02;;;;;;;;;;5086750;28;20093;-47
2021/01/05 13:36:23;;;;;;;26.85;14.13;;;;;;;;;;5085603;28;20928;-46
2021/01/05 13:38:49;;;;;;;30.95;15.45;;;;;;;;;;5086884;28;20105;-50
2021/01/05 13:41:31;;;;;;;30.00;14.35;;;;;;;;;;5086518;28;20028;-46
2021/01/05 13:43:58;;;;;;;27.23;14.32;;;;;;;;;;5086455;28;20089;-49
2021/01/05 13:46:26;;;;;;;29.63;13.98;;;;;;;;;;5086644;28;20494;-50
2021/01/05 13:48:52;;;;;;;29.88;14.60;;;;;;;;;;5086891;28;20118;-47
2021/01/05 13:51:24;;;;;;;26.00;13.02;;;;;;;;;;5086838;28;20024;-48
2021/01/05 13:53:54;;;;;;;24.92;13.02;;;;;;;;;;5086711;28;20510;-47
2021/01/05 13:56:20;;;;;;;26.95;12.82;;;;;;;;;;5086965;28;20387;-48
2021/01/05 13:58:46;;;;;;;24.80;12.45;;;;;;;;;;5086749;28;20024;-49
2021/01/05 14:01:13;;;;;;;26.35;14.20;;;;;;;;;;5087024;28;20070;-49
2021/01/05 14:03:39;;;;;;;27.05;13.30;;;;;;;;;;5085914;28;20039;-49
2021/01/05 14:06:05;;;;;;;24.50;13.98;;;;;;;;;;5086944;28;20567;-46
2021/01/05 14:08:31;;;;;;;25.48;12.90;;;;;;;;;;5086704;28;20429;-46
2021/01/05 14:10:58;;;;;;;24.83;13.10;;;;;;;;;;5084698;28;20032;-48
2021/01/05 14:13:27;;;;;;;23.42;12.48;;;;;;;;;;5086740;28;20028;-46
2021/01/05 14:15:53;;;;;;;25.75;12.07;;;;;;;;;;5086224;28;20154;-48
2021/01/05 14:18:19;;;;;;;18.08;9.93;;;;;;;;;;5087159;28;20028;-47
2021/01/05 14:20:45;;;;;;;22.17;10.55;;;;;;;;;;5086588;28;20061;-49
2021/01/05 14:23:11;;;;;;;19.85;10.40;;;;;;;;;;5086340;28;20077;-48
2021/01/05 14:25:38;;;;;;;24.08;13.10;;;;;;;;;;5085910;28;20498;-46
2021/01/05 14:28:04;;;;;;;19.08;11.45;;;;;;;;;;5086562;28;20425;-48